sensor_id;sensor_type;location;lat;lon;timestamp;temperature;humidity
69031;DHT22;56083;48.774;8.942;2023-04-03T00:00:57;2.80;99.90
69031;DHT22;56083;48.774;8.942;2023-04-03T00:03:22;2.80;99.90
69031;DHT22;56083;48.774;8.942;2023-04-03T00:05:48;2.80;99.90
69031;DHT22;56083;48.774;8.942;2023-04-03T00:08:14;2.80;99.90
69031;DHT22;56083;48.774;8.942;2023-04-03T00:10:40;2.80;99.90
69031;DHT22;56083;48.774;8.942;2023-04-03T00:13:06;2.70;99.90
69031;DHT22;56083;48.774;8.942;2023-04-03T00:15:33;2.70;99.90
69031;DHT22;56083;48.774;8.942;2023-04-03T00:17:59;2.60;99.90
69031;DHT22;56083;48.774;8.942;2023-04-03T00:20:25;2.50;99.90
69031;DHT22;56083;48.774;8.942;2023-04-03T00:22:52;2.50;99.90
69031;DHT22;56083;48.774;8.942;2023-04-03T00:25:18;2.50;99.90
69031;DHT22;56083;48.774;8.942;2023-04-03T00:27:44;2.50;99.90
69031;DHT22;56083;48.774;8.942;2023-04-03T00:30:13;2.40;99.90
69031;DHT22;56083;48.774;8.942;2023-04-03T00:32:38;2.40;99.90
69031;DHT22;56083;48.774;8.942;2023-04-03T00:35:04;2.30;99.90
69031;DHT22;56083;48.774;8.942;2023-04-03T00:37:30;2.30;99.90
69031;DHT22;56083;48.774;8.942;2023-04-03T00:39:56;2.30;99.90
69031;DHT22;56083;48.774;8.942;2023-04-03T00:42:22;2.30;99.90
69031;DHT22;56083;48.774;8.942;2023-04-03T00:47:16;2.20;99.90
69031;DHT22;56083;48.774;8.942;2023-04-03T00:49:43;2.20;99.90
69031;DHT22;56083;48.774;8.942;2023-04-03T00:52:13;2.20;99.90
69031;DHT22;56083;48.774;8.942;2023-04-03T00:54:41;2.20;99.90
69031;DHT22;56083;48.774;8.942;2023-04-03T00:57:08;2.20;99.90
69031;DHT22;56083;48.774;8.942;2023-04-03T00:59:39;2.20;99.90
69031;DHT22;56083;48.774;8.942;2023-04-03T01:02:07;2.20;99.90
69031;DHT22;56083;48.774;8.942;2023-04-03T01:04:38;2.20;99.90
69031;DHT22;56083;48.774;8.942;2023-04-03T01:07:08;2.20;99.90
69031;DHT22;56083;48.774;8.942;2023-04-03T01:09:34;2.20;99.90
69031;DHT22;56083;48.774;8.942;2023-04-03T01:12:18;2.20;99.90
69031;DHT22;56083;48.774;8.942;2023-04-03T01:14:45;2.20;99.90
69031;DHT22;56083;48.774;8.942;2023-04-03T01:28:09;2.10;99.90
69031;DHT22;56083;48.774;8.942;2023-04-03T01:33:33;2.00;99.90
69031;DHT22;56083;48.774;8.942;2023-04-03T01:36:00;2.00;99.90
69031;DHT22;56083;48.774;8.942;2023-04-03T01:38:26;2.00;99.90
69031;DHT22;56083;48.774;8.942;2023-04-03T01:40:52;2.00;99.90
69031;DHT22;56083;48.774;8.942;2023-04-03T01:43:18;2.00;99.90
69031;DHT22;56083;48.774;8.942;2023-04-03T01:45:43;2.00;99.90
69031;DHT22;56083;48.774;8.942;2023-04-03T01:48:09;1.90;99.90
69031;DHT22;56083;48.774;8.942;2023-04-03T01:50:35;1.90;99.90
69031;DHT22;56083;48.774;8.942;2023-04-03T01:53:00;1.90;99.90
69031;DHT22;56083;48.774;8.942;2023-04-03T01:55:26;1.80;99.90
69031;DHT22;56083;48.774;8.942;2023-04-03T01:57:52;1.80;99.90
69031;DHT22;56083;48.774;8.942;2023-04-03T02:00:17;1.80;99.90
69031;DHT22;56083;48.774;8.942;2023-04-03T02:02:43;1.80;99.90
69031;DHT22;56083;48.774;8.942;2023-04-03T02:05:09;1.80;99.90
69031;DHT22;56083;48.774;8.942;2023-04-03T02:07:34;1.80;99.90
69031;DHT22;56083;48.774;8.942;2023-04-03T02:10:00;1.80;99.90
69031;DHT22;56083;48.774;8.942;2023-04-03T02:12:26;1.80;99.90
69031;DHT22;56083;48.774;8.942;2023-04-03T02:14:51;1.80;99.90
69031;DHT22;56083;48.774;8.942;2023-04-03T02:17:17;1.70;99.90
69031;DHT22;56083;48.774;8.942;2023-04-03T02:19:43;1.70;99.90
69031;DHT22;56083;48.774;8.942;2023-04-03T02:22:08;1.70;99.90
69031;DHT22;56083;48.774;8.942;2023-04-03T02:24:34;1.70;99.90
69031;DHT22;56083;48.774;8.942;2023-04-03T02:27:00;1.70;99.90
69031;DHT22;56083;48.774;8.942;2023-04-03T02:29:25;1.70;99.90
69031;DHT22;56083;48.774;8.942;2023-04-03T02:31:51;1.80;99.90
69031;DHT22;56083;48.774;8.942;2023-04-03T02:34:17;1.80;99.90
69031;DHT22;56083;48.774;8.942;2023-04-03T02:36:43;1.90;99.90
69031;DHT22;56083;48.774;8.942;2023-04-03T02:39:09;1.90;99.90
69031;DHT22;56083;48.774;8.942;2023-04-03T02:41:35;1.90;99.90
69031;DHT22;56083;48.774;8.942;2023-04-03T02:44:02;1.90;99.90
69031;DHT22;56083;48.774;8.942;2023-04-03T02:46:28;1.90;99.90
69031;DHT22;56083;48.774;8.942;2023-04-03T02:48:53;1.90;99.90
69031;DHT22;56083;48.774;8.942;2023-04-03T02:51:19;2.00;99.90
69031;DHT22;56083;48.774;8.942;2023-04-03T02:53:45;2.00;99.90
69031;DHT22;56083;48.774;8.942;2023-04-03T02:56:11;2.00;99.90
69031;DHT22;56083;48.774;8.942;2023-04-03T02:58:36;2.00;99.90
69031;DHT22;56083;48.774;8.942;2023-04-03T03:01:02;2.00;99.90
69031;DHT22;56083;48.774;8.942;2023-04-03T03:03:28;2.00;99.90
69031;DHT22;56083;48.774;8.942;2023-04-03T03:06:02;2.10;99.90
69031;DHT22;56083;48.774;8.942;2023-04-03T03:08:27;2.10;99.90
69031;DHT22;56083;48.774;8.942;2023-04-03T03:10:53;2.00;99.90
69031;DHT22;56083;48.774;8.942;2023-04-03T03:13:19;2.10;99.90
69031;DHT22;56083;48.774;8.942;2023-04-03T03:15:44;2.00;99.90
69031;DHT22;56083;48.774;8.942;2023-04-03T03:18:10;2.10;99.90
69031;DHT22;56083;48.774;8.942;2023-04-03T03:20:35;2.00;99.90
69031;DHT22;56083;48.774;8.942;2023-04-03T03:23:01;2.10;99.90
69031;DHT22;56083;48.774;8.942;2023-04-03T03:25:27;2.00;99.90
69031;DHT22;56083;48.774;8.942;2023-04-03T03:27:52;2.10;99.90
69031;DHT22;56083;48.774;8.942;2023-04-03T03:30:18;2.10;99.90
69031;DHT22;56083;48.774;8.942;2023-04-03T03:32:43;2.10;99.90
69031;DHT22;56083;48.774;8.942;2023-04-03T03:35:09;2.10;99.90
69031;DHT22;56083;48.774;8.942;2023-04-03T03:37:35;2.10;99.90
69031;DHT22;56083;48.774;8.942;2023-04-03T03:40:00;2.10;99.90
69031;DHT22;56083;48.774;8.942;2023-04-03T03:42:26;2.10;99.90
69031;DHT22;56083;48.774;8.942;2023-04-03T03:44:52;2.10;99.90
69031;DHT22;56083;48.774;8.942;2023-04-03T03:47:17;2.10;99.90
69031;DHT22;56083;48.774;8.942;2023-04-03T03:49:43;2.10;99.90
69031;DHT22;56083;48.774;8.942;2023-04-03T03:52:08;2.10;99.90
69031;DHT22;56083;48.774;8.942;2023-04-03T03:54:36;2.10;99.90
69031;DHT22;56083;48.774;8.942;2023-04-03T03:57:02;2.10;99.90
69031;DHT22;56083;48.774;8.942;2023-04-03T03:59:28;2.10;99.90
69031;DHT22;56083;48.774;8.942;2023-04-03T04:01:54;2.10;99.90
69031;DHT22;56083;48.774;8.942;2023-04-03T04:04:20;2.10;99.90
69031;DHT22;56083;48.774;8.942;2023-04-03T04:06:46;2.10;99.90
69031;DHT22;56083;48.774;8.942;2023-04-03T04:09:12;2.10;99.90
69031;DHT22;56083;48.774;8.942;2023-04-03T04:11:37;2.10;99.90
69031;DHT22;56083;48.774;8.942;2023-04-03T04:14:05;2.10;99.90
69031;DHT22;56083;48.774;8.942;2023-04-03T04:16:31;2.20;99.90
69031;DHT22;56083;48.774;8.942;2023-04-03T04:18:56;2.20;99.90
69031;DHT22;56083;48.774;8.942;2023-04-03T04:21:22;2.20;99.90
69031;DHT22;56083;48.774;8.942;2023-04-03T04:23:48;2.20;99.90
69031;DHT22;56083;48.774;8.942;2023-04-03T04:26:13;2.20;99.90
69031;DHT22;56083;48.774;8.942;2023-04-03T04:28:39;2.20;99.90
69031;DHT22;56083;48.774;8.942;2023-04-03T04:33:38;2.20;99.90
69031;DHT22;56083;48.774;8.942;2023-04-03T04:36:03;2.20;99.90
69031;DHT22;56083;48.774;8.942;2023-04-03T04:38:29;2.20;99.90
69031;DHT22;56083;48.774;8.942;2023-04-03T04:40:55;2.30;99.90
69031;DHT22;56083;48.774;8.942;2023-04-03T04:43:20;2.30;99.90
69031;DHT22;56083;48.774;8.942;2023-04-03T04:45:46;2.30;99.90
69031;DHT22;56083;48.774;8.942;2023-04-03T04:48:12;2.30;99.90
69031;DHT22;56083;48.774;8.942;2023-04-03T04:50:37;2.30;99.90
69031;DHT22;56083;48.774;8.942;2023-04-03T04:53:03;2.30;99.90
69031;DHT22;56083;48.774;8.942;2023-04-03T04:55:29;2.30;99.90
69031;DHT22;56083;48.774;8.942;2023-04-03T04:57:55;2.30;99.90
69031;DHT22;56083;48.774;8.942;2023-04-03T05:00:21;2.30;99.90
69031;DHT22;56083;48.774;8.942;2023-04-03T05:02:46;2.30;99.90
69031;DHT22;56083;48.774;8.942;2023-04-03T05:05:12;2.30;99.90
69031;DHT22;56083;48.774;8.942;2023-04-03T05:07:38;2.30;99.90
69031;DHT22;56083;48.774;8.942;2023-04-03T05:10:04;2.40;99.90
69031;DHT22;56083;48.774;8.942;2023-04-03T05:12:30;2.40;99.90
69031;DHT22;56083;48.774;8.942;2023-04-03T05:14:55;2.40;99.90
69031;DHT22;56083;48.774;8.942;2023-04-03T05:17:21;2.40;99.90
69031;DHT22;56083;48.774;8.942;2023-04-03T05:19:46;2.40;99.90
69031;DHT22;56083;48.774;8.942;2023-04-03T05:22:12;2.30;99.90
69031;DHT22;56083;48.774;8.942;2023-04-03T05:24:38;2.30;99.90
69031;DHT22;56083;48.774;8.942;2023-04-03T05:27:03;2.40;99.90
69031;DHT22;56083;48.774;8.942;2023-04-03T05:29:29;2.40;99.90
69031;DHT22;56083;48.774;8.942;2023-04-03T05:31:55;2.40;99.90
69031;DHT22;56083;48.774;8.942;2023-04-03T05:34:20;2.40;99.90
69031;DHT22;56083;48.774;8.942;2023-04-03T05:36:46;2.50;99.90
69031;DHT22;56083;48.774;8.942;2023-04-03T05:39:12;2.60;99.90
69031;DHT22;56083;48.774;8.942;2023-04-03T05:41:37;2.70;99.90
69031;DHT22;56083;48.774;8.942;2023-04-03T05:44:03;2.70;99.90
69031;DHT22;56083;48.774;8.942;2023-04-03T05:46:29;2.70;99.90
69031;DHT22;56083;48.774;8.942;2023-04-03T05:48:55;2.80;99.90
69031;DHT22;56083;48.774;8.942;2023-04-03T05:51:29;2.80;99.90
69031;DHT22;56083;48.774;8.942;2023-04-03T05:54:08;2.80;99.90
69031;DHT22;56083;48.774;8.942;2023-04-03T05:56:34;2.70;99.90
69031;DHT22;56083;48.774;8.942;2023-04-03T05:59:00;2.70;99.90
69031;DHT22;56083;48.774;8.942;2023-04-03T06:01:25;2.70;99.90
69031;DHT22;56083;48.774;8.942;2023-04-03T06:03:51;2.70;99.90
69031;DHT22;56083;48.774;8.942;2023-04-03T06:06:17;2.70;99.90
69031;DHT22;56083;48.774;8.942;2023-04-03T06:08:43;2.90;99.90
69031;DHT22;56083;48.774;8.942;2023-04-03T06:11:09;3.00;99.90
69031;DHT22;56083;48.774;8.942;2023-04-03T06:13:34;3.00;99.90
69031;DHT22;56083;48.774;8.942;2023-04-03T06:16:00;3.10;99.90
69031;DHT22;56083;48.774;8.942;2023-04-03T06:18:26;3.00;99.90
69031;DHT22;56083;48.774;8.942;2023-04-03T06:20:52;3.00;99.90
69031;DHT22;56083;48.774;8.942;2023-04-03T06:23:17;3.10;99.90
69031;DHT22;56083;48.774;8.942;2023-04-03T06:25:43;3.00;99.90
69031;DHT22;56083;48.774;8.942;2023-04-03T06:28:09;3.10;99.90
69031;DHT22;56083;48.774;8.942;2023-04-03T06:30:35;3.10;99.90
69031;DHT22;56083;48.774;8.942;2023-04-03T06:33:02;3.10;99.90
69031;DHT22;56083;48.774;8.942;2023-04-03T06:35:28;3.30;99.90
69031;DHT22;56083;48.774;8.942;2023-04-03T06:37:55;3.40;99.90
69031;DHT22;56083;48.774;8.942;2023-04-03T06:40:23;3.60;99.90
69031;DHT22;56083;48.774;8.942;2023-04-03T06:42:49;3.70;99.90
69031;DHT22;56083;48.774;8.942;2023-04-03T06:45:15;3.70;99.90
69031;DHT22;56083;48.774;8.942;2023-04-03T06:47:40;3.80;99.90
69031;DHT22;56083;48.774;8.942;2023-04-03T06:50:06;3.90;99.90
69031;DHT22;56083;48.774;8.942;2023-04-03T06:52:32;4.00;99.90
69031;DHT22;56083;48.774;8.942;2023-04-03T06:54:58;4.00;99.90
69031;DHT22;56083;48.774;8.942;2023-04-03T06:57:25;4.10;99.90
69031;DHT22;56083;48.774;8.942;2023-04-03T06:59:50;4.10;99.90
69031;DHT22;56083;48.774;8.942;2023-04-03T07:02:16;4.20;99.90
69031;DHT22;56083;48.774;8.942;2023-04-03T07:04:42;4.30;99.90
69031;DHT22;56083;48.774;8.942;2023-04-03T07:07:08;4.30;99.90
69031;DHT22;56083;48.774;8.942;2023-04-03T07:09:33;4.40;99.90
69031;DHT22;56083;48.774;8.942;2023-04-03T07:11:59;4.60;99.90
69031;DHT22;56083;48.774;8.942;2023-04-03T07:14:25;4.70;99.90
69031;DHT22;56083;48.774;8.942;2023-04-03T07:16:51;4.60;99.90
69031;DHT22;56083;48.774;8.942;2023-04-03T07:19:16;4.60;99.90
69031;DHT22;56083;48.774;8.942;2023-04-03T07:21:44;4.60;99.90
69031;DHT22;56083;48.774;8.942;2023-04-03T07:24:10;4.70;99.90
69031;DHT22;56083;48.774;8.942;2023-04-03T07:26:36;4.70;99.90
69031;DHT22;56083;48.774;8.942;2023-04-03T07:29:01;4.60;99.90
69031;DHT22;56083;48.774;8.942;2023-04-03T07:31:27;4.50;99.90
69031;DHT22;56083;48.774;8.942;2023-04-03T07:33:53;4.60;99.90
69031;DHT22;56083;48.774;8.942;2023-04-03T07:36:21;4.80;99.90
69031;DHT22;56083;48.774;8.942;2023-04-03T07:38:47;5.10;99.90
69031;DHT22;56083;48.774;8.942;2023-04-03T07:41:15;5.10;99.90
69031;DHT22;56083;48.774;8.942;2023-04-03T07:43:43;5.10;99.90
69031;DHT22;56083;48.774;8.942;2023-04-03T07:46:09;5.20;99.90
69031;DHT22;56083;48.774;8.942;2023-04-03T07:48:35;5.20;99.90
69031;DHT22;56083;48.774;8.942;2023-04-03T07:51:02;5.10;99.90
69031;DHT22;56083;48.774;8.942;2023-04-03T07:53:28;5.10;99.90
69031;DHT22;56083;48.774;8.942;2023-04-03T07:55:54;5.20;99.90
69031;DHT22;56083;48.774;8.942;2023-04-03T07:58:21;5.40;99.90
69031;DHT22;56083;48.774;8.942;2023-04-03T08:00:47;5.60;99.90
69031;DHT22;56083;48.774;8.942;2023-04-03T08:03:14;5.60;99.90
69031;DHT22;56083;48.774;8.942;2023-04-03T08:05:43;5.70;99.90
69031;DHT22;56083;48.774;8.942;2023-04-03T08:08:11;5.90;99.90
69031;DHT22;56083;48.774;8.942;2023-04-03T08:10:38;5.90;99.90
69031;DHT22;56083;48.774;8.942;2023-04-03T08:13:04;6.20;99.90
69031;DHT22;56083;48.774;8.942;2023-04-03T08:15:31;6.60;99.90
69031;DHT22;56083;48.774;8.942;2023-04-03T08:17:57;6.80;99.90
69031;DHT22;56083;48.774;8.942;2023-04-03T08:20:23;6.70;99.90
69031;DHT22;56083;48.774;8.942;2023-04-03T08:22:49;6.70;99.90
69031;DHT22;56083;48.774;8.942;2023-04-03T08:25:14;6.80;99.90
69031;DHT22;56083;48.774;8.942;2023-04-03T08:27:40;6.80;99.90
69031;DHT22;56083;48.774;8.942;2023-04-03T08:30:07;6.60;99.90
69031;DHT22;56083;48.774;8.942;2023-04-03T08:32:36;6.60;99.90
69031;DHT22;56083;48.774;8.942;2023-04-03T08:35:05;6.50;99.90
69031;DHT22;56083;48.774;8.942;2023-04-03T08:37:31;6.50;99.90
69031;DHT22;56083;48.774;8.942;2023-04-03T08:39:59;6.60;99.90
69031;DHT22;56083;48.774;8.942;2023-04-03T08:50:35;6.60;99.90
69031;DHT22;56083;48.774;8.942;2023-04-03T08:53:03;6.70;99.90
69031;DHT22;56083;48.774;8.942;2023-04-03T08:55:37;6.70;99.90
69031;DHT22;56083;48.774;8.942;2023-04-03T08:58:06;6.90;99.90
69031;DHT22;56083;48.774;8.942;2023-04-03T09:00:58;6.90;99.90
69031;DHT22;56083;48.774;8.942;2023-04-03T09:03:24;7.10;99.90
69031;DHT22;56083;48.774;8.942;2023-04-03T09:06:11;7.00;99.90
69031;DHT22;56083;48.774;8.942;2023-04-03T09:11:35;6.70;99.90
69031;DHT22;56083;48.774;8.942;2023-04-03T09:14:12;6.90;99.90
69031;DHT22;56083;48.774;8.942;2023-04-03T09:16:56;7.20;99.90
69031;DHT22;56083;48.774;8.942;2023-04-03T09:19:43;7.60;99.90
69031;DHT22;56083;48.774;8.942;2023-04-03T09:24:41;8.00;99.90
69031;DHT22;56083;48.774;8.942;2023-04-03T09:27:10;8.00;99.90
69031;DHT22;56083;48.774;8.942;2023-04-03T09:29:39;8.00;99.90
69031;DHT22;56083;48.774;8.942;2023-04-03T09:32:28;7.80;99.90
69031;DHT22;56083;48.774;8.942;2023-04-03T09:35:05;7.70;99.90
69031;DHT22;56083;48.774;8.942;2023-04-03T09:37:41;7.40;99.90
69031;DHT22;56083;48.774;8.942;2023-04-03T09:40:29;7.20;99.90
69031;DHT22;56083;48.774;8.942;2023-04-03T09:43:02;7.10;99.90
69031;DHT22;56083;48.774;8.942;2023-04-03T09:45:35;7.20;99.90
69031;DHT22;56083;48.774;8.942;2023-04-03T09:50:41;7.80;99.90
69031;DHT22;56083;48.774;8.942;2023-04-03T09:53:39;8.10;99.90
69031;DHT22;56083;48.774;8.942;2023-04-03T09:59:08;8.40;99.90
69031;DHT22;56083;48.774;8.942;2023-04-03T10:01:42;8.10;99.90
69031;DHT22;56083;48.774;8.942;2023-04-03T10:04:09;7.80;99.90
69031;DHT22;56083;48.774;8.942;2023-04-03T10:06:38;7.60;99.90
69031;DHT22;56083;48.774;8.942;2023-04-03T10:12:09;7.30;99.90
69031;DHT22;56083;48.774;8.942;2023-04-03T10:14:58;7.40;99.90
69031;DHT22;56083;48.774;8.942;2023-04-03T10:20:46;7.30;99.90
69031;DHT22;56083;48.774;8.942;2023-04-03T10:23:18;6.80;99.90
69031;DHT22;56083;48.774;8.942;2023-04-03T10:29:09;7.00;99.90
69031;DHT22;56083;48.774;8.942;2023-04-03T10:31:46;6.80;99.90
69031;DHT22;56083;48.774;8.942;2023-04-03T10:34:25;6.70;99.90
69031;DHT22;56083;48.774;8.942;2023-04-03T10:39:41;6.40;99.90
69031;DHT22;56083;48.774;8.942;2023-04-03T10:42:34;6.40;99.90
69031;DHT22;56083;48.774;8.942;2023-04-03T10:45:21;6.50;99.90
69031;DHT22;56083;48.774;8.942;2023-04-03T10:53:14;6.70;99.90
69031;DHT22;56083;48.774;8.942;2023-04-03T10:58:43;7.20;99.90
69031;DHT22;56083;48.774;8.942;2023-04-03T11:01:16;7.30;99.90
69031;DHT22;56083;48.774;8.942;2023-04-03T11:03:47;7.30;99.90
69031;DHT22;56083;48.774;8.942;2023-04-03T11:06:16;7.30;99.90
69031;DHT22;56083;48.774;8.942;2023-04-03T11:11:34;7.10;99.90
69031;DHT22;56083;48.774;8.942;2023-04-03T11:14:05;6.90;99.90
69031;DHT22;56083;48.774;8.942;2023-04-03T11:16:38;6.90;99.90
69031;DHT22;56083;48.774;8.942;2023-04-03T11:24:42;6.50;99.90
69031;DHT22;56083;48.774;8.942;2023-04-03T11:27:17;6.40;99.90
69031;DHT22;56083;48.774;8.942;2023-04-03T11:29:47;6.30;99.90
69031;DHT22;56083;48.774;8.942;2023-04-03T11:35:07;6.40;99.90
69031;DHT22;56083;48.774;8.942;2023-04-03T11:37:34;6.30;99.90
69031;DHT22;56083;48.774;8.942;2023-04-03T11:40:18;6.40;99.90
69031;DHT22;56083;48.774;8.942;2023-04-03T11:42:51;6.50;99.90
69031;DHT22;56083;48.774;8.942;2023-04-03T11:50:51;6.70;99.90
69031;DHT22;56083;48.774;8.942;2023-04-03T11:58:28;6.80;99.90
69031;DHT22;56083;48.774;8.942;2023-04-03T12:03:33;6.70;99.90
69031;DHT22;56083;48.774;8.942;2023-04-03T12:16:24;6.40;99.90
69031;DHT22;56083;48.774;8.942;2023-04-03T12:24:03;7.00;99.90
69031;DHT22;56083;48.774;8.942;2023-04-03T12:40:43;8.10;99.90
69031;DHT22;56083;48.774;8.942;2023-04-03T12:48:56;7.80;99.90
69031;DHT22;56083;48.774;8.942;2023-04-03T12:51:37;7.80;99.90
69031;DHT22;56083;48.774;8.942;2023-04-03T12:54:18;7.80;99.90
69031;DHT22;56083;48.774;8.942;2023-04-03T12:56:45;7.90;99.90
69031;DHT22;56083;48.774;8.942;2023-04-03T12:59:22;8.00;99.90
69031;DHT22;56083;48.774;8.942;2023-04-03T13:02:10;8.10;99.90
69031;DHT22;56083;48.774;8.942;2023-04-03T13:04:39;8.10;99.90
69031;DHT22;56083;48.774;8.942;2023-04-03T13:07:17;8.20;99.90
69031;DHT22;56083;48.774;8.942;2023-04-03T13:09:43;8.20;99.90
69031;DHT22;56083;48.774;8.942;2023-04-03T13:12:20;8.20;99.90
69031;DHT22;56083;48.774;8.942;2023-04-03T13:15:00;8.20;99.90
69031;DHT22;56083;48.774;8.942;2023-04-03T13:17:30;8.30;99.90
69031;DHT22;56083;48.774;8.942;2023-04-03T13:20:11;8.40;99.90
69031;DHT22;56083;48.774;8.942;2023-04-03T13:22:44;8.50;99.90
69031;DHT22;56083;48.774;8.942;2023-04-03T13:25:13;8.30;99.90
69031;DHT22;56083;48.774;8.942;2023-04-03T13:27:40;8.00;99.90
69031;DHT22;56083;48.774;8.942;2023-04-03T13:30:41;8.00;99.90
69031;DHT22;56083;48.774;8.942;2023-04-03T13:33:22;8.00;99.90
69031;DHT22;56083;48.774;8.942;2023-04-03T13:35:56;8.00;99.90
69031;DHT22;56083;48.774;8.942;2023-04-03T13:38:26;8.20;99.90
69031;DHT22;56083;48.774;8.942;2023-04-03T13:40:58;8.00;99.90
69031;DHT22;56083;48.774;8.942;2023-04-03T13:43:28;8.00;99.90
69031;DHT22;56083;48.774;8.942;2023-04-03T13:48:46;7.60;99.90
69031;DHT22;56083;48.774;8.942;2023-04-03T13:54:00;8.10;99.90
69031;DHT22;56083;48.774;8.942;2023-04-03T13:56:36;8.30;99.90
69031;DHT22;56083;48.774;8.942;2023-04-03T13:59:31;8.30;99.90
69031;DHT22;56083;48.774;8.942;2023-04-03T14:04:31;8.30;99.90
69031;DHT22;56083;48.774;8.942;2023-04-03T14:06:58;8.40;99.90
69031;DHT22;56083;48.774;8.942;2023-04-03T14:09:26;8.50;99.90
69031;DHT22;56083;48.774;8.942;2023-04-03T14:11:55;8.60;99.90
69031;DHT22;56083;48.774;8.942;2023-04-03T14:14:26;8.90;99.90
69031;DHT22;56083;48.774;8.942;2023-04-03T14:16:56;9.10;99.90
69031;DHT22;56083;48.774;8.942;2023-04-03T14:21:54;9.20;99.90
69031;DHT22;56083;48.774;8.942;2023-04-03T14:24:21;9.20;99.90
69031;DHT22;56083;48.774;8.942;2023-04-03T14:26:49;9.20;99.90
69031;DHT22;56083;48.774;8.942;2023-04-03T14:29:15;8.80;99.90
69031;DHT22;56083;48.774;8.942;2023-04-03T14:31:43;8.70;99.90
69031;DHT22;56083;48.774;8.942;2023-04-03T14:34:13;8.80;99.90
69031;DHT22;56083;48.774;8.942;2023-04-03T14:36:41;8.50;99.90
69031;DHT22;56083;48.774;8.942;2023-04-03T14:39:11;8.40;99.90
69031;DHT22;56083;48.774;8.942;2023-04-03T14:41:41;8.20;99.90
69031;DHT22;56083;48.774;8.942;2023-04-03T14:44:07;8.00;99.90
69031;DHT22;56083;48.774;8.942;2023-04-03T14:46:36;7.80;99.90
69031;DHT22;56083;48.774;8.942;2023-04-03T14:49:03;7.70;99.90
69031;DHT22;56083;48.774;8.942;2023-04-03T14:51:32;7.80;99.90
69031;DHT22;56083;48.774;8.942;2023-04-03T14:53:58;7.90;99.90
69031;DHT22;56083;48.774;8.942;2023-04-03T14:56:29;8.00;99.90
69031;DHT22;56083;48.774;8.942;2023-04-03T14:58:59;8.60;99.90
69031;DHT22;56083;48.774;8.942;2023-04-03T15:01:26;8.70;99.90
69031;DHT22;56083;48.774;8.942;2023-04-03T15:03:52;8.50;99.90
69031;DHT22;56083;48.774;8.942;2023-04-03T15:06:18;8.20;99.90
69031;DHT22;56083;48.774;8.942;2023-04-03T15:08:46;8.10;99.90
69031;DHT22;56083;48.774;8.942;2023-04-03T15:11:12;7.90;99.90
69031;DHT22;56083;48.774;8.942;2023-04-03T15:13:38;7.70;99.90
69031;DHT22;56083;48.774;8.942;2023-04-03T15:16:15;7.30;99.90
69031;DHT22;56083;48.774;8.942;2023-04-03T15:18:41;7.50;99.90
69031;DHT22;56083;48.774;8.942;2023-04-03T15:21:07;9.10;99.90
69031;DHT22;56083;48.774;8.942;2023-04-03T15:23:33;10.70;99.90
69031;DHT22;56083;48.774;8.942;2023-04-03T15:25:59;11.90;99.90
69031;DHT22;56083;48.774;8.942;2023-04-03T15:28:32;11.70;99.90
69031;DHT22;56083;48.774;8.942;2023-04-03T15:30:59;12.30;99.90
69031;DHT22;56083;48.774;8.942;2023-04-03T15:33:26;13.30;99.10
69031;DHT22;56083;48.774;8.942;2023-04-03T15:35:52;13.90;97.30
69031;DHT22;56083;48.774;8.942;2023-04-03T15:38:18;14.70;92.40
69031;DHT22;56083;48.774;8.942;2023-04-03T15:40:43;14.00;90.00
69031;DHT22;56083;48.774;8.942;2023-04-03T15:43:09;12.90;91.90
69031;DHT22;56083;48.774;8.942;2023-04-03T15:45:36;12.20;90.60
69031;DHT22;56083;48.774;8.942;2023-04-03T15:48:03;12.20;91.60
69031;DHT22;56083;48.774;8.942;2023-04-03T15:50:31;13.00;89.20
69031;DHT22;56083;48.774;8.942;2023-04-03T15:52:56;13.30;87.90
69031;DHT22;56083;48.774;8.942;2023-04-03T15:55:27;12.90;87.90
69031;DHT22;56083;48.774;8.942;2023-04-03T15:57:53;12.40;90.10
69031;DHT22;56083;48.774;8.942;2023-04-03T16:00:20;12.30;91.20
69031;DHT22;56083;48.774;8.942;2023-04-03T16:02:47;12.50;89.20
69031;DHT22;56083;48.774;8.942;2023-04-03T16:05:16;12.00;90.40
69031;DHT22;56083;48.774;8.942;2023-04-03T16:07:42;10.80;91.80
69031;DHT22;56083;48.774;8.942;2023-04-03T16:10:09;9.50;94.50
69031;DHT22;56083;48.774;8.942;2023-04-03T16:12:35;8.50;95.50
69031;DHT22;56083;48.774;8.942;2023-04-03T16:15:01;7.70;97.20
69031;DHT22;56083;48.774;8.942;2023-04-03T16:17:27;7.10;98.20
69031;DHT22;56083;48.774;8.942;2023-04-03T16:19:54;6.70;99.80
69031;DHT22;56083;48.774;8.942;2023-04-03T16:22:21;6.70;99.90
69031;DHT22;56083;48.774;8.942;2023-04-03T16:24:49;6.90;99.90
69031;DHT22;56083;48.774;8.942;2023-04-03T16:27:15;7.20;99.90
69031;DHT22;56083;48.774;8.942;2023-04-03T16:29:41;7.30;99.90
69031;DHT22;56083;48.774;8.942;2023-04-03T16:32:07;8.00;99.80
69031;DHT22;56083;48.774;8.942;2023-04-03T16:34:32;9.10;97.40
69031;DHT22;56083;48.774;8.942;2023-04-03T16:36:59;10.00;95.60
69031;DHT22;56083;48.774;8.942;2023-04-03T16:39:24;10.00;95.40
69031;DHT22;56083;48.774;8.942;2023-04-03T16:41:50;9.90;95.80
69031;DHT22;56083;48.774;8.942;2023-04-03T16:44:16;10.00;96.20
69031;DHT22;56083;48.774;8.942;2023-04-03T16:46:41;10.40;94.60
69031;DHT22;56083;48.774;8.942;2023-04-03T16:49:07;10.80;94.30
69031;DHT22;56083;48.774;8.942;2023-04-03T16:51:33;10.90;94.20
69031;DHT22;56083;48.774;8.942;2023-04-03T16:53:58;11.00;92.70
69031;DHT22;56083;48.774;8.942;2023-04-03T16:56:24;10.70;91.60
69031;DHT22;56083;48.774;8.942;2023-04-03T16:58:52;10.60;92.50
69031;DHT22;56083;48.774;8.942;2023-04-03T17:01:20;10.60;92.30
69031;DHT22;56083;48.774;8.942;2023-04-03T17:03:46;10.40;91.90
69031;DHT22;56083;48.774;8.942;2023-04-03T17:06:15;9.70;92.60
69031;DHT22;56083;48.774;8.942;2023-04-03T17:08:42;8.70;92.00
69031;DHT22;56083;48.774;8.942;2023-04-03T17:11:08;7.80;93.70
69031;DHT22;56083;48.774;8.942;2023-04-03T17:13:34;7.00;95.00
69031;DHT22;56083;48.774;8.942;2023-04-03T17:16:01;6.40;97.20
69031;DHT22;56083;48.774;8.942;2023-04-03T17:18:28;5.90;98.20
69031;DHT22;56083;48.774;8.942;2023-04-03T17:20:55;5.50;99.90
69031;DHT22;56083;48.774;8.942;2023-04-03T17:23:23;5.20;99.90
69031;DHT22;56083;48.774;8.942;2023-04-03T17:25:49;4.90;99.90
69031;DHT22;56083;48.774;8.942;2023-04-03T17:28:14;4.70;99.90
69031;DHT22;56083;48.774;8.942;2023-04-03T17:30:40;4.50;99.90
69031;DHT22;56083;48.774;8.942;2023-04-03T17:33:06;4.40;99.90
69031;DHT22;56083;48.774;8.942;2023-04-03T17:35:31;4.30;99.90
69031;DHT22;56083;48.774;8.942;2023-04-03T17:37:57;4.20;99.90
69031;DHT22;56083;48.774;8.942;2023-04-03T17:40:23;4.20;99.90
69031;DHT22;56083;48.774;8.942;2023-04-03T17:42:48;4.10;99.90
69031;DHT22;56083;48.774;8.942;2023-04-03T17:45:14;4.10;99.90
69031;DHT22;56083;48.774;8.942;2023-04-03T17:47:40;4.10;99.90
69031;DHT22;56083;48.774;8.942;2023-04-03T17:50:06;4.10;99.90
69031;DHT22;56083;48.774;8.942;2023-04-03T17:52:32;4.00;99.90
69031;DHT22;56083;48.774;8.942;2023-04-03T17:54:58;3.90;99.90
69031;DHT22;56083;48.774;8.942;2023-04-03T17:57:23;3.90;99.90
69031;DHT22;56083;48.774;8.942;2023-04-03T17:59:49;3.90;99.90